Vance, AL (35490)

6:05 AM CDT en Agosto 28, 2014 (GMT -0500)
McCalla, Judson Valley | Change Station
CLOSE
Current Station
Estación meteorológica personal
Location: McCalla, AL
Altura: 521 ft
Estaciones meteorológicas cercanas

Alt 521 ft 33.30 °N, 87.05 °W | Updated 5 minutes ago

Despejado
Despejado
61.8 ° F
Sensación térmica 61.8 ° F
N
0.0
Viento Variable Viento desde Sur
Gusts 0.0 mph

Hoy
Alta -- | Baja -- ° F
--% Posibilidad de precipitaciones
Ayer
Alta -- | Baja -- ° F
Precip. -- pul
6:20 AM 7:18 PM
Creciente, 7% visible
Presión 30.03 pul
Visibilidad 10.0 Millas
Nubes Despejado
Punto de rocío 60 ° F
Humedad 92%
Precipitaciones 0.00 pul
Espesor de la nieve No disponible.
UV 0 de una escala de 12
Polen 9.30 de una escala de 12
Ozono Buena
PM2.5 Moderada
Flu Activity No disponible.
METAR KEET 281053Z AUTO 00000KT 10SM CLR 19/17 A3005 RMK AO2 SLP168 T01890172

More Conditions Fewer Conditions

Presión 30.03 pul
Visibilidad 10.0 Millas
Nubes Despejado
Punto de rocío 60 ° F
Humedad 92%
Precipitaciones 0.00 pul
Espesor de la nieve No disponible.
UV 0 de una escala de 12
Polen 9.30 de una escala de 12
Ozono Buena
PM2.5 Moderada
Flu Activity No disponible.
METAR KEET 281053Z AUTO 00000KT 10SM CLR 19/17 A3005 RMK AO2 SLP168 T01890172

More Conditions Fewer Conditions

10-Day Weather Forecast

Almanac

Astronomía

Aug. 28, 2014 Salida Puesta
Hora real 6:20 AM CDT 7:18 PM CDT
Crepúsculo civil 5:54 AM CDT 7:44 PM CDT
Crepúsculo náutico 5:24 AM CDT 8:14 PM CDT
Crepúsculo astronómico 4:53 AM CDT 8:45 PM CDT
Luna 9:01 AM CDT 8:54 PM CDT
Horas de luz 13h 49m
Horas de luz
12h 58m
Tomorrow will be 1m 58s shorter.
Creciente, 7% of the Moon is Illuminated
Hoy
Creciente
Sep 2
Cuarto creciente
Sep 8
Luna llena
Sep 15
Cuarto menguante
Sep 24
Nueva

Extremos de hoy

Máximos del estado Bajos del estado

Community

WunderPhotos

Upload Photos

1,747,923 ¡fotos cargadas!

Nearby

Calidad del aire

  Calidad del aire Índice AQ Contaminante
Ayer Moderada
OZONE
Ayer Buena
PM10
Real Moderada
PM2.5
Real Buena
OZONE
Jueves Nociva para grupos sensibles
OZONE
Jueves Moderada
PM2.5

Grosos de nieve

Estación Profundido Altura
No tenemos constancia de nieve nueva.

Actividad de terremotos

Ciudad Distance Mag. Tiempo y dato
No hay informes recientes de la actividad sísmica.
Magnitud mínima muestra es 2,5.

Temperaturas de aguas costeras

Lugar Temperatura
Sin partes meteorológicos de las estaciones

Estaciones meteorológicas cercanas